79°F Temp
52°F Dewpoint
39% Humidity
Temperature
3 MPH
5 KM/H
3 KTS
20°
North North
East

Wind Speed
Partly Cloudy
Conditions
Pressure 1013.22 (hPa) - 29.92 (in)
Visibility 8.7 (mi) - 14.0 (km)

Current Conditions
KSJC
Location 9(mi)
Metar :KSJC 211853Z 02003KT 9SM FEW001 OVC050 26/11 A2992 RMK AO2 SLP132 FU FEW001 FU OVC050 T02610111
Mon 21st September 10:53 am

Airport
  Metar Aviation API Data Provided by https://www.checkwx.com/ PHP scripts by weather34.com ©2020